Flight Track Log - Related Links

Times and Time Zones

All times are in EDT time to prevent confusion due to time zone crossing. See the CPZ5867 flight status page for this flight to view local times or setup timezone preferences in your user account.

Time Position Orientation Groundspeed Altitude Reporting Facility
EDT Latitude Longitude Course Direction KTS MPH feet Rate Location/Type
Mon 10:25:18 AM 44.9392 -93.2536 70° East 179 206 4,400  Level Minneapolis Center
Mon 10:26:20 AM 44.9950 -93.2781 343° North 208 239 6,900 2,640 Climbing Minneapolis Center
Mon 10:27:23 AM 45.0519 -93.2231 34° Northeast 276 318 9,900 2,400 Climbing Minneapolis Center
Mon 10:28:25 AM 45.0914 -93.1106 64° Northeast 333 383 11,900 2,613 Climbing Minneapolis Center
Mon 10:29:27 AM 45.1356 -92.9400 70° East 381 438 15,300 2,758 Climbing Minneapolis Center
Mon 10:30:00 AM 45.1315 -92.2575 70° East  Level FlightAware Approximate
Mon 10:30:29 AM 45.1744 -92.7894 70° East 404 465 17,600  Level Minneapolis Center
Mon 10:31:31 AM 45.2158 -92.6314 70° East 425 489 19,800 2,081 Climbing Minneapolis Center
Mon 10:32:33 AM 45.2578 -92.4661 70° East 443 510 21,900 1,887 Climbing Minneapolis Center
Mon 10:33:35 AM 45.3000 -92.2944 71° East 460 529 23,700 1,645 Climbing Minneapolis Center
Mon 10:34:37 AM 45.3281 -92.1094 78° East 477 549 25,300 1,597 Climbing Minneapolis Center
Mon 10:35:39 AM 45.3594 -91.8800 79° East 491 565 27,000 1,306 Climbing Minneapolis Center
Mon 10:36:41 AM 45.3867 -91.6842 79° East 499 574 28,000 968 Climbing Minneapolis Center
Mon 10:37:43 AM 45.4122 -91.4800 80° East 517 595 29,000 1,065 Climbing Minneapolis Center
Mon 10:38:45 AM 45.4386 -91.2733 80° East 527 606 30,200 1,210 Climbing Minneapolis Center
Mon 10:39:47 AM 45.4653 -91.0675 79° East 529 609 31,500 1,258 Climbing Minneapolis Center
Mon 10:40:49 AM 45.4586 -90.8575 93° East 532 612 32,800 1,258 Climbing Minneapolis Center
Mon 10:41:51 AM 45.4361 -90.6058 97° East 535 616 34,100 912 Climbing Minneapolis Center
Mon 10:42:54 AM 45.4153 -90.3969 98° East 537 618 34,700 432 Climbing Minneapolis Center
Mon 10:43:56 AM 45.3953 -90.1797 97° East 548 631 35,000 145 Climbing Minneapolis Center
Mon 10:44:58 AM 45.3744 -89.9597 98° East 558 642 35,000  Level Minneapolis Center
Mon 10:46:00 AM 45.3536 -89.7453 98° East 546 628 35,000 97 Level Minneapolis Center
Mon 10:47:02 AM 45.3278 -89.4950 98° East 549 632 35,200 774 Climbing Minneapolis Center
Mon 10:48:04 AM 45.3047 -89.2831 99° East 544 626 36,600 871 Climbing Minneapolis Center
Mon 10:49:06 AM 45.2822 -89.0736 99° East 538 619 37,000 194 Climbing Minneapolis Center
Mon 10:50:08 AM 45.2597 -88.8614 98° East 542 624 37,000  Level Minneapolis Center
Mon 10:51:10 AM 45.2350 -88.6467 99° East 550 633 37,000  Level Minneapolis Center
Mon 10:52:12 AM 45.2114 -88.4319 99° East 546 628 37,000  Level Minneapolis Center
Mon 10:53:14 AM 45.1867 -88.2203 99° East 547 629 37,000  Level Minneapolis Center
Mon 10:54:16 AM 45.1575 -87.9664 99° East 545 627 37,000  Level Minneapolis Center
Mon 10:55:18 AM 45.1317 -87.7547 100° East 546 628 37,000  Level Minneapolis Center
Mon 10:56:20 AM 45.1053 -87.5436 100° East 548 631 37,000  Level Minneapolis Center
Mon 10:57:22 AM 45.0789 -87.3300 100° East 551 634 37,000  Level Minneapolis Center
Mon 10:58:25 AM 45.0522 -87.1172 100° East 552 635 37,000  Level Minneapolis Center
Mon 10:59:27 AM 45.0250 -86.9033 100° East 554 638 37,000  Level Minneapolis Center
Mon 11:00:29 AM 44.9947 -86.6644 100° East 556 640 37,000  Level Minneapolis Center
Mon 11:01:31 AM 44.9661 -86.4503 101° East 558 642 37,000  Level Minneapolis Center
Mon 11:02:33 AM 44.9381 -86.2381 101° East 554 638 37,000  Level Minneapolis Center
Mon 11:03:35 AM 44.9092 -86.0256 101° East 552 635 37,000  Level Minneapolis Center
Mon 11:04:36 AM 44.8800 -85.8133 101° East 552 635 37,000  Level Minneapolis Center
Mon 11:05:39 AM 44.8478 -85.5703 101° East 546 628 37,000  Level Minneapolis Center
Mon 11:06:41 AM 44.8178 -85.3600 101° East 547 629 37,000  Level Minneapolis Center
Mon 11:07:43 AM 44.7872 -85.1503 102° East 547 629 37,000  Level Minneapolis Center
Mon 11:08:58 AM 44.7458 -84.8581 101° East 546 628 37,000  Level Minneapolis Center
Mon 11:10:00 AM 44.7144 -84.6492 102° East 547 629 37,000  Level Minneapolis Center
Mon 11:11:02 AM 44.6839 -84.4414 102° East 545 627 37,000  Level Minneapolis Center
Mon 11:12:04 AM 44.6519 -84.2322 102° East 547 629 37,000  Level Minneapolis Center
Mon 11:13:06 AM 44.6200 -84.0222 102° East 550 633 37,000  Level Minneapolis Center
Mon 11:14:08 AM 44.5883 -83.8117 102° East 552 635 37,000  Level Minneapolis Center
Mon 11:15:10 AM 44.5489 -83.5589 102° East 555 639 37,000  Level Minneapolis Center
Mon 11:16:12 AM 44.5136 -83.3483 103° East 556 640 37,000  Level Minneapolis Center
Mon 11:17:14 AM 44.4806 -83.1361 102° East 557 641 37,000  Level Minneapolis Center
Mon 11:18:16 AM 44.4456 -82.9261 103° East 557 641 37,000  Level Minneapolis Center
Mon 11:19:18 AM 44.4108 -82.7161 103° East 556 640 37,000  Level Minneapolis Center
Mon 11:20:20 AM 44.3750 -82.5064 103° East 556 640 37,000  Level Minneapolis Center
Mon 11:21:22 AM 44.3303 -82.2558 104° East 556 640 37,000  Level Minneapolis Center
Mon 11:22:30 AM 44.2500 -82.0000 114° Southeast 550 633 37,000  Level Toronto Center
Mon 11:23:30 AM 44.2167 -81.8167 104° East 550 633 37,000  Level Toronto Center
Mon 11:24:30 AM 44.1667 -81.6167 109° East 550 633 37,000  Level Toronto Center
Mon 11:25:30 AM 44.1167 -81.4167 109° East 550 633 37,000  Level Toronto Center
Mon 11:26:30 AM 44.0500 -81.2167 115° Southeast 550 633 37,000  Level Toronto Center
Mon 11:27:30 AM 44.0000 -81.0000 108° East 550 633 37,000  Level Toronto Center
Mon 11:28:30 AM 43.9667 -80.8167 104° East 550 633 37,000  Level Toronto Center
Mon 11:29:30 AM 43.9167 -80.6000 108° East 550 633 37,000  Level Toronto Center
Mon 11:30:30 AM 43.8667 -80.4000 109° East 550 633 37,000  Level Toronto Center
Mon 11:31:30 AM 43.8167 -80.2167 111° Southeast 550 633 37,000  Level Toronto Center
Mon 11:32:30 AM 43.7500 -80.0000 113° Southeast 550 633 37,000  Level Toronto Center
Mon 11:33:30 AM 43.7000 -79.8167 111° Southeast 550 633 37,000  Level Toronto Center
Mon 11:34:30 AM 43.6500 -79.6167 109° East 550 633 37,000  Level Toronto Center
Mon 11:35:30 AM 43.6000 -79.4333 111° Southeast 560 644 37,000  Level Toronto Center
Mon 11:36:30 AM 43.5333 -79.2000 111° Southeast 540 621 37,000  Level Toronto Center
Mon 11:37:30 AM 43.5000 -79.0167 104° East 550 633 37,000  Level Toronto Center
Mon 11:38:30 AM 43.4333 -78.8333 117° Southeast 550 633 37,000  Level Toronto Center
Mon 11:39:30 AM 43.3833 -78.6167 108° East 550 633 37,000  Level Toronto Center
Mon 11:40:45 AM 43.3300 -78.4200 110° East 547 629 37,000  Level Cleveland Center
Mon 11:41:45 AM 43.2739 -78.2253 112° Southeast 547 629 37,000  Level Cleveland Center
Mon 11:42:45 AM 43.2197 -78.0278 111° Southeast 547 629 37,000  Level Cleveland Center
Mon 11:43:45 AM 43.1633 -77.8364 112° Southeast 542 624 37,000  Level Cleveland Center
Mon 11:44:45 AM 43.1086 -77.6428 111° Southeast 542 624 37,000  Level Cleveland Center
Mon 11:45:45 AM 43.0597 -77.4517 109° East 542 624 37,000  Level Cleveland Center
Mon 11:47:30 AM 42.9500 -77.0833 112° Southeast 540 621 37,000  Level Toronto Center
Mon 11:48:06 AM 42.9411 -76.9903 97° East 534 615 37,000  Level Boston Center
Mon 11:49:04 AM 42.8922 -76.7994 109° East 534 615 37,000  Level Boston Center
Mon 11:50:05 AM 42.8539 -76.6550 110° East 534 615 37,000  Level Boston Center
Mon 11:51:05 AM 42.8078 -76.4847 110° East 534 615 37,000  Level Boston Center
Mon 11:52:06 AM 42.7525 -76.2803 110° East 529 609 37,000  Level Boston Center
Mon 11:53:06 AM 42.6967 -76.0761 110° East 529 609 37,000 -254 Level Boston Center
Mon 11:54:04 AM 42.6442 -75.8867 111° Southeast 529 609 36,500 -605 Descending Boston Center
Mon 11:55:05 AM 42.5933 -75.7006 110° East 529 609 35,800 -1,339 Descending Boston Center
Mon 11:56:05 AM 42.5422 -75.5147 110° East 522 601 33,800 -2,479 Descending Boston Center
Mon 11:57:06 AM 42.4889 -75.3261 111° Southeast 522 601 30,800 -2,662 Descending Boston Center
Mon 11:58:18 AM 42.4308 -75.1406 113° Southeast 528 608 27,900 -3,000 Descending Boston Center
Mon 11:59:18 AM 42.3561 -74.9406 117° Southeast 512 589 24,200 -3,176 Descending Boston Center
Mon 12:00:17 PM 42.2969 -74.7839 117° Southeast 487 560 21,600 -2,521 Descending Boston Center
Mon 12:01:17 PM 42.2397 -74.6275 116° Southeast 475 547 19,200 -1,785 Descending Boston Center
Mon 12:02:18 PM 42.1842 -74.4800 117° Southeast 456 525 18,000 -590 Descending Boston Center
Mon 12:03:19 PM 42.1303 -74.3325 116° Southeast 439 505 18,000  Level Boston Center
Mon 12:04:16 PM 42.0472 -74.1931 129° Southeast 434 499 18,000  Level Boston Center
Mon 12:05:16 PM 41.9528 -74.0983 143° Southeast 429 494 18,000  Level Boston Center
Mon 12:06:17 PM 41.8664 -74.0181 145° Southeast 429 494 18,000 -689 Level Boston Center
Mon 12:07:18 PM 41.7461 -73.9594 160° South 414 476 16,600 -1,672 Descending Boston Center
Mon 12:08:19 PM 41.6550 -73.9239 164° South 394 453 14,600 -1,863 Descending Boston Center
Mon 12:09:59 PM 41.5000 -73.8667 165° South 308 354 11,600 -1,725 Descending New York TRACON
Mon 12:10:59 PM 41.4167 -73.8333 163° South 298 343 10,000 -1,700 Descending New York TRACON
Mon 12:11:59 PM 41.3500 -73.8000 159° South 289 333 8,200 -1,000 Descending New York TRACON
Mon 12:12:59 PM 41.2833 -73.7167 137° Southeast 301 346 8,000 -250 Descending New York TRACON
Mon 12:13:59 PM 41.2333 -73.6333 129° Southeast 301 346 7,700 -1,100 Descending New York TRACON
Mon 12:14:59 PM 41.1667 -73.5500 137° Southeast 292 336 5,800 -1,800 Descending New York TRACON
Mon 12:15:59 PM 41.1000 -73.5167 159° South 275 316 4,100 -900 Descending New York TRACON
Mon 12:16:59 PM 41.0333 -73.4833 159° South 271 312 4,000 -53 Descending New York TRACON
Mon 12:17:53 PM 41.0000 -73.5500 236° Southwest 271 312 4,000  Level New York TRACON
Mon 12:18:59 PM 40.9500 -73.6333 232° Southwest 270 311 4,000  Level New York TRACON
Mon 12:19:53 PM 40.9167 -73.7167 242° Southwest 267 307 4,000  Level New York TRACON
Mon 12:20:59 PM 40.9000 -73.8333 259° West 266 306 4,000  Level New York TRACON
Mon 12:21:59 PM 40.8833 -73.9167 255° West 269 310 4,000  Level New York TRACON
Mon 12:22:59 PM 40.8167 -73.9667 210° Southwest 267 307 4,000  Level New York TRACON
Mon 12:23:59 PM 40.7500 -74.0167 210° Southwest 265 305 4,000  Level New York TRACON
Mon 12:25:05 PM 40.6833 -74.0500 201° Southwest 224 258 4,000 -143 Level New York TRACON
Mon 12:26:05 PM 40.6333 -74.0833 207° Southwest 202 232 3,700 -526 Descending New York TRACON
Mon 12:26:59 PM 40.6000 -74.1167 217° Southwest 204 235 3,000 -350 Descending New York TRACON
Mon 12:28:05 PM 40.5333 -74.1500 201° Southwest 207 238 3,000  Level New York TRACON
Mon 12:29:05 PM 40.5000 -74.1167 143° Southeast 214 246 3,000  Level New York TRACON
Mon 12:30:05 PM 40.5333 -74.0667 49° Northeast 178 205 3,000  Level New York TRACON
Mon 12:30:59 PM 40.5833 -74.0500 14° North 179 206 3,000  Level New York TRACON
Mon 12:31:59 PM 40.6167 -74.0167 37° Northeast 174 200 3,000 -200 Level New York TRACON
Mon 12:32:59 PM 40.6667 -73.9833 27° Northeast 168 193 2,600 -650 Descending New York TRACON
Mon 12:33:59 PM 40.7000 -73.9500 37° Northeast 163 188 1,700 -850 Descending New York TRACON
Mon 12:34:59 PM 40.7333 -73.9167 37° Northeast 132 152 900 -667 Descending New York TRACON
Mon 12:36:05 PM 40.7667 -73.8833 37° Northeast 123 142 300 -545 Descending New York TRACON

Login

Don't have an account? Register now (free) for customized features, flight alerts, and more!